createdAt,value
2018-01-28T00:00:32.074Z,4.20
2018-01-28T00:02:59.632Z,4.10
2018-01-28T00:05:27.234Z,4.00
2018-01-28T00:07:54.711Z,3.80
2018-01-28T00:10:23.460Z,3.80
2018-01-28T00:12:50.969Z,3.60
2018-01-28T00:15:18.475Z,3.50
2018-01-28T00:17:45.965Z,3.50
2018-01-28T00:20:13.595Z,3.50
2018-01-28T00:22:41.690Z,3.70
2018-01-28T00:25:09.211Z,3.80
2018-01-28T00:27:36.660Z,3.90
2018-01-28T00:30:04.114Z,4.00
2018-01-28T00:32:31.768Z,4.00
2018-01-28T00:35:04.150Z,4.20
2018-01-28T00:37:32.878Z,4.20
2018-01-28T00:40:01.093Z,4.20
2018-01-28T00:42:28.572Z,4.20
2018-01-28T00:44:56.801Z,4.20
2018-01-28T00:47:24.304Z,4.20
2018-01-28T00:49:51.754Z,4.20
2018-01-28T00:52:20.080Z,4.20
2018-01-28T00:54:47.532Z,4.30
2018-01-28T00:57:15.988Z,4.10
2018-01-28T00:59:43.517Z,4.10
2018-01-28T01:02:10.928Z,4.00
2018-01-28T01:04:41.933Z,4.00
2018-01-28T01:07:10.973Z,4.00
2018-01-28T01:09:38.588Z,4.00
2018-01-28T01:12:06.175Z,4.00
2018-01-28T01:14:35.316Z,4.10
2018-01-28T01:17:02.776Z,4.10
2018-01-28T01:19:30.433Z,4.30
2018-01-28T01:21:57.885Z,4.40
2018-01-28T01:24:25.377Z,4.50
2018-01-28T01:26:53.032Z,4.50
2018-01-28T01:29:20.468Z,4.50
2018-01-28T01:31:49.889Z,4.40
2018-01-28T01:34:17.376Z,4.40
2018-01-28T01:36:46.255Z,4.40
2018-01-28T01:39:13.788Z,4.40
2018-01-28T01:41:41.276Z,4.50
2018-01-28T01:44:08.722Z,4.50
2018-01-28T01:46:36.443Z,4.50
2018-01-28T01:49:03.934Z,4.60
2018-01-28T01:51:31.703Z,4.50
2018-01-28T01:53:59.154Z,4.40
2018-01-28T01:56:27.376Z,4.40
2018-01-28T01:58:54.988Z,4.50
2018-01-28T02:01:22.470Z,4.60
2018-01-28T02:03:50.206Z,4.60
2018-01-28T02:06:22.564Z,4.50
2018-01-28T02:08:50.061Z,4.50
2018-01-28T02:11:17.848Z,4.60
2018-01-28T02:13:45.380Z,4.60
2018-01-28T02:16:13.601Z,4.60
2018-01-28T02:18:41.336Z,4.60
2018-01-28T02:21:08.824Z,4.70
2018-01-28T02:23:36.367Z,4.70
2018-01-28T02:26:03.848Z,4.80
2018-01-28T02:28:31.526Z,4.80
2018-01-28T02:31:01.437Z,4.90
2018-01-28T02:33:28.881Z,4.90
2018-01-28T02:35:56.360Z,4.80
2018-01-28T02:38:23.813Z,4.80
2018-01-28T02:40:51.575Z,4.80
2018-01-28T02:43:19.660Z,4.80
2018-01-28T02:45:47.157Z,4.80
2018-01-28T02:48:14.695Z,4.80
2018-01-28T02:50:42.944Z,4.90
2018-01-28T02:53:10.421Z,4.90
2018-01-28T02:55:37.971Z,4.90
2018-01-28T02:58:05.446Z,4.80
2018-01-28T03:00:33.107Z,4.80
2018-01-28T03:03:00.552Z,4.80
2018-01-28T03:05:28.039Z,4.70
2018-01-28T03:07:55.753Z,4.60
2018-01-28T03:10:23.248Z,4.70
2018-01-28T03:12:51.482Z,4.70
2018-01-28T03:15:18.956Z,4.70
2018-01-28T03:17:47.148Z,4.80
2018-01-28T03:20:14.614Z,5.00
2018-01-28T03:22:42.096Z,5.00
2018-01-28T03:25:09.574Z,5.00
2018-01-28T03:27:37.284Z,5.00
2018-01-28T03:30:04.782Z,4.90
2018-01-28T03:32:32.230Z,4.90
2018-01-28T03:35:00.595Z,5.00
2018-01-28T03:37:32.635Z,5.00
2018-01-28T03:40:00.996Z,5.00
2018-01-28T03:42:28.656Z,5.00
2018-01-28T03:44:56.183Z,5.00
2018-01-28T03:47:23.700Z,5.10
2018-01-28T03:49:51.267Z,5.10
2018-01-28T03:52:18.788Z,5.10
2018-01-28T03:54:46.228Z,5.20
2018-01-28T03:57:13.680Z,5.20
2018-01-28T03:59:41.184Z,5.20
2018-01-28T04:02:09.656Z,5.30
2018-01-28T04:04:37.305Z,5.30
2018-01-28T04:07:05.568Z,5.30
2018-01-28T04:09:33.040Z,5.30
2018-01-28T04:12:00.492Z,5.30
2018-01-28T04:14:28.795Z,5.40
2018-01-28T04:16:56.240Z,5.40
2018-01-28T04:19:23.695Z,5.30
2018-01-28T04:21:51.157Z,5.20
2018-01-28T04:24:22.289Z,5.10
2018-01-28T04:26:49.744Z,5.10
2018-01-28T04:29:17.220Z,5.10
2018-01-28T04:31:44.950Z,5.20
2018-01-28T04:34:12.728Z,5.20
2018-01-28T04:36:40.219Z,5.20
2018-01-28T04:39:07.949Z,5.30
2018-01-28T04:41:36.215Z,5.70
2018-01-28T04:44:03.657Z,5.60
2018-01-28T04:46:32.076Z,5.80
2018-01-28T04:48:59.532Z,5.80
2018-01-28T04:51:26.980Z,5.90
2018-01-28T04:53:58.240Z,6.00
2018-01-28T04:56:25.734Z,6.10
2018-01-28T04:58:53.190Z,6.10
2018-01-28T05:01:21.230Z,6.10
2018-01-28T05:03:48.687Z,6.20
2018-01-28T05:06:17.098Z,6.20
2018-01-28T05:08:44.682Z,6.20
2018-01-28T05:11:12.156Z,6.30
2018-01-28T05:13:39.620Z,6.30
2018-01-28T05:16:07.131Z,6.30
2018-01-28T05:18:35.919Z,6.40
2018-01-28T05:21:03.525Z,6.40
2018-01-28T05:23:31.033Z,6.40
2018-01-28T05:25:59.213Z,6.40
2018-01-28T05:28:26.860Z,6.40
2018-01-28T05:30:55.606Z,6.50
2018-01-28T05:33:25.532Z,6.50
2018-01-28T05:35:53.193Z,6.50
2018-01-28T05:38:20.644Z,6.50
2018-01-28T05:40:49.801Z,6.50
2018-01-28T05:43:17.287Z,6.60
2018-01-28T05:45:44.750Z,6.60
2018-01-28T05:48:12.261Z,6.60
2018-01-28T05:50:39.737Z,6.60
2018-01-28T05:53:07.232Z,6.60
2018-01-28T05:55:34.713Z,6.70
2018-01-28T05:58:04.071Z,6.70
2018-01-28T06:00:31.537Z,6.70
2018-01-28T06:02:59.032Z,6.70
2018-01-28T06:05:26.603Z,6.70
2018-01-28T06:07:54.066Z,6.70
2018-01-28T06:10:22.476Z,6.70
2018-01-28T06:12:50.030Z,6.70
2018-01-28T06:15:17.525Z,6.70
2018-01-28T06:17:44.973Z,6.80
2018-01-28T06:20:12.454Z,6.80
2018-01-28T06:22:39.975Z,6.80
2018-01-28T06:25:07.489Z,6.80
2018-01-28T06:27:34.946Z,6.80
2018-01-28T06:30:02.646Z,6.80
2018-01-28T06:32:30.828Z,6.80
2018-01-28T06:34:58.684Z,6.70
2018-01-28T06:37:26.158Z,6.70
2018-01-28T06:39:56.056Z,6.80
2018-01-28T06:42:23.509Z,6.80
2018-01-28T06:44:51.605Z,6.90
2018-01-28T06:47:19.165Z,6.80
2018-01-28T06:49:46.608Z,6.80
2018-01-28T06:52:15.122Z,6.80
2018-01-28T06:54:42.698Z,6.90
2018-01-28T06:57:10.213Z,6.90
2018-01-28T06:59:37.676Z,6.90
2018-01-28T07:02:05.335Z,6.90
2018-01-28T07:04:35.248Z,6.90
2018-01-28T07:07:02.717Z,6.90
2018-01-28T07:09:30.458Z,6.90
2018-01-28T07:11:58.844Z,6.80
2018-01-28T07:14:26.292Z,6.80
2018-01-28T07:16:54.056Z,6.90
2018-01-28T07:19:21.702Z,6.90
2018-01-28T07:21:49.192Z,6.90
2018-01-28T07:24:17.557Z,6.90
2018-01-28T07:26:45.049Z,7.00
2018-01-28T07:29:13.284Z,7.00
2018-01-28T07:31:40.728Z,7.00
2018-01-28T07:34:08.171Z,7.00
2018-01-28T07:36:35.636Z,6.90
2018-01-28T07:39:03.116Z,7.00
2018-01-28T07:41:34.327Z,7.00
2018-01-28T07:44:01.836Z,7.10
2018-01-28T07:46:29.335Z,7.10
2018-01-28T07:48:56.780Z,7.20
2018-01-28T07:51:25.144Z,7.10
2018-01-28T07:53:52.748Z,7.10
2018-01-28T07:56:20.429Z,7.10
2018-01-28T07:58:47.868Z,7.20
2018-01-28T08:01:16.608Z,7.20
2018-01-28T08:03:44.196Z,7.20
2018-01-28T08:06:11.692Z,7.10
2018-01-28T08:08:43.765Z,7.10
2018-01-28T08:11:15.808Z,7.10
2018-01-28T08:13:43.268Z,7.10
2018-01-28T08:16:12.474Z,7.10
2018-01-28T08:18:40.191Z,7.10
2018-01-28T08:21:07.649Z,7.20
2018-01-28T08:23:36.060Z,7.20
2018-01-28T08:26:03.524Z,7.30
2018-01-28T08:28:35.500Z,7.30
2018-01-28T08:31:02.980Z,7.40
2018-01-28T08:33:30.958Z,7.40
2018-01-28T08:35:58.441Z,7.50
2018-01-28T08:38:25.981Z,7.60
2018-01-28T08:40:53.587Z,7.60
2018-01-28T08:43:24.361Z,7.50
2018-01-28T08:45:51.932Z,7.50
2018-01-28T08:48:21.265Z,7.60
2018-01-28T08:50:48.773Z,7.60
2018-01-28T08:53:16.285Z,7.50
2018-01-28T08:55:43.772Z,7.40
2018-01-28T08:58:11.229Z,7.40
2018-01-28T09:00:39.584Z,7.40
2018-01-28T09:03:07.150Z,7.50
2018-01-28T09:05:34.604Z,7.50
2018-01-28T09:08:02.068Z,7.50
2018-01-28T09:10:29.542Z,7.60
2018-01-28T09:13:00.490Z,7.60
2018-01-28T09:15:27.974Z,7.60
2018-01-28T09:17:55.411Z,7.70
2018-01-28T09:20:24.405Z,7.70
2018-01-28T09:22:52.142Z,7.60
2018-01-28T09:25:19.680Z,7.60
2018-01-28T09:27:47.130Z,7.50
2018-01-28T09:30:14.734Z,7.50
2018-01-28T09:32:43.021Z,7.50
2018-01-28T09:35:10.472Z,7.50
2018-01-28T09:37:38.117Z,7.50
2018-01-28T09:40:05.916Z,7.50
2018-01-28T09:42:33.353Z,7.60
2018-01-28T09:45:05.114Z,7.60
2018-01-28T09:47:32.772Z,7.60
2018-01-28T09:50:00.244Z,7.50
2018-01-28T09:52:27.700Z,7.50
2018-01-28T09:54:55.205Z,7.50
2018-01-28T09:57:22.674Z,7.70
2018-01-28T09:59:50.326Z,7.70
2018-01-28T10:02:17.909Z,7.80
2018-01-28T10:04:46.506Z,7.80
2018-01-28T10:07:14.021Z,7.80
2018-01-28T10:09:41.496Z,7.70
2018-01-28T10:12:08.957Z,7.60
2018-01-28T10:14:36.437Z,7.70
2018-01-28T10:17:03.920Z,7.70
2018-01-28T10:19:31.406Z,7.60
2018-01-28T10:21:58.865Z,7.60
2018-01-28T10:24:26.315Z,7.50
2018-01-28T10:26:53.815Z,7.60
2018-01-28T10:29:24.868Z,7.60
2018-01-28T10:31:52.335Z,7.60
2018-01-28T10:34:19.828Z,7.70
2018-01-28T10:36:47.325Z,7.70
2018-01-28T10:39:14.792Z,7.80
2018-01-28T10:41:42.454Z,7.80
2018-01-28T10:44:09.908Z,7.80
2018-01-28T10:46:37.372Z,7.90
2018-01-28T10:49:04.841Z,8.00
2018-01-28T10:51:33.888Z,7.90
2018-01-28T10:54:01.456Z,7.90
2018-01-28T10:56:28.891Z,7.80
2018-01-28T10:58:56.348Z,7.60
2018-01-28T11:01:23.871Z,7.40
2018-01-28T11:03:52.143Z,7.30
2018-01-28T11:06:20.361Z,7.30
2018-01-28T11:08:47.826Z,7.30
2018-01-28T11:11:15.314Z,7.30
2018-01-28T11:13:44.248Z,7.30
2018-01-28T11:16:11.707Z,7.40
2018-01-28T11:18:39.391Z,7.40
2018-01-28T11:21:06.849Z,7.40
2018-01-28T11:23:34.433Z,7.30
2018-01-28T11:26:02.804Z,7.30
2018-01-28T11:28:30.856Z,7.30
2018-01-28T11:31:03.040Z,7.80
2018-01-28T11:33:31.638Z,8.30
2018-01-28T11:35:59.115Z,8.40
2018-01-28T11:38:26.600Z,8.20
2018-01-28T11:40:54.548Z,8.00
2018-01-28T11:43:22.065Z,7.80
2018-01-28T11:45:51.350Z,7.60
2018-01-28T11:48:18.802Z,7.60
2018-01-28T11:50:46.284Z,7.60
2018-01-28T11:53:13.778Z,7.50
2018-01-28T11:55:41.436Z,7.50
2018-01-28T11:58:10.627Z,7.40
2018-01-28T12:00:41.371Z,7.40
2018-01-28T12:03:08.832Z,7.40
2018-01-28T12:05:36.316Z,7.40
2018-01-28T12:08:03.780Z,7.40
2018-01-28T12:10:31.245Z,7.40
2018-01-28T12:12:59.881Z,7.40
2018-01-28T12:15:27.346Z,7.40
2018-01-28T12:17:54.857Z,7.40
2018-01-28T12:20:22.346Z,7.40
2018-01-28T12:22:49.809Z,7.50
2018-01-28T12:25:19.022Z,7.70
2018-01-28T12:27:46.506Z,7.70
2018-01-28T12:30:13.946Z,7.70
2018-01-28T12:32:41.446Z,7.90
2018-01-28T12:35:08.920Z,7.90
2018-01-28T12:37:36.388Z,7.80
2018-01-28T12:40:03.836Z,7.80
2018-01-28T12:42:31.315Z,7.80
2018-01-28T12:44:59.556Z,7.70
2018-01-28T12:47:27.511Z,7.70
2018-01-28T12:49:55.094Z,7.70
2018-01-28T12:52:23.245Z,7.80
2018-01-28T12:54:51.616Z,7.80
2018-01-28T12:57:19.206Z,7.80
2018-01-28T12:59:47.390Z,7.80
2018-01-28T13:02:14.880Z,7.80
2018-01-28T13:04:42.391Z,7.70
2018-01-28T13:07:09.920Z,7.70
2018-01-28T13:09:37.382Z,7.70
2018-01-28T13:12:05.691Z,7.70
2018-01-28T13:14:33.126Z,7.80
2018-01-28T13:17:00.626Z,7.80
2018-01-28T13:19:28.437Z,7.80
2018-01-28T13:21:55.869Z,7.80
2018-01-28T13:24:23.420Z,7.80
2018-01-28T13:26:50.920Z,7.80
2018-01-28T13:29:19.244Z,7.70
2018-01-28T13:31:46.781Z,7.70
2018-01-28T13:34:14.276Z,7.70
2018-01-28T13:36:41.759Z,7.70
2018-01-28T13:39:09.264Z,7.60
2018-01-28T13:41:36.735Z,7.60
2018-01-28T13:44:04.969Z,7.60
2018-01-28T13:46:32.825Z,7.60
2018-01-28T13:49:00.263Z,7.50
2018-01-28T13:51:27.782Z,7.50
2018-01-28T13:53:55.338Z,7.40
2018-01-28T13:56:22.864Z,7.40
2018-01-28T13:58:50.447Z,7.40
2018-01-28T14:01:17.939Z,7.40
2018-01-28T14:03:50.545Z,7.40
2018-01-28T14:06:18.035Z,7.40
2018-01-28T14:08:45.490Z,7.50
2018-01-28T14:11:12.926Z,7.50
2018-01-28T14:13:40.437Z,7.50
2018-01-28T14:16:08.911Z,7.60
2018-01-28T14:18:40.756Z,7.50
2018-01-28T14:21:08.248Z,7.60
2018-01-28T14:23:36.905Z,7.60
2018-01-28T14:26:04.332Z,7.60
2018-01-28T14:28:31.845Z,7.70
2018-01-28T14:30:59.301Z,7.60
2018-01-28T14:33:30.737Z,7.50
2018-01-28T14:35:58.577Z,7.50
2018-01-28T14:38:26.401Z,7.40
2018-01-28T14:40:54.682Z,7.50
2018-01-28T14:43:22.337Z,7.40
2018-01-28T14:45:50.617Z,7.40
2018-01-28T14:48:18.105Z,7.50
2018-01-28T14:50:49.202Z,7.50
2018-01-28T14:53:16.645Z,7.60
2018-01-28T14:55:45.916Z,7.60
2018-01-28T14:58:13.393Z,7.60
2018-01-28T15:00:41.675Z,7.70
2018-01-28T15:03:09.211Z,7.70
2018-01-28T15:05:36.651Z,7.80
2018-01-28T15:08:05.103Z,7.70
2018-01-28T15:10:32.591Z,7.70
2018-01-28T15:13:00.127Z,7.60
2018-01-28T15:15:27.645Z,7.60
2018-01-28T15:17:55.889Z,7.60
2018-01-28T15:20:24.261Z,7.60
2018-01-28T15:22:52.004Z,7.70
2018-01-28T15:25:20.392Z,7.70
2018-01-28T15:27:48.218Z,7.70
2018-01-28T15:30:15.700Z,7.70
2018-01-28T15:32:43.833Z,7.70
2018-01-28T15:35:11.301Z,7.70
2018-01-28T15:37:38.824Z,7.70
2018-01-28T15:40:06.528Z,7.80
2018-01-28T15:42:34.020Z,7.80
2018-01-28T15:45:01.538Z,7.90
2018-01-28T15:47:29.758Z,7.80
2018-01-28T15:49:57.203Z,7.80
2018-01-28T15:52:25.428Z,7.90
2018-01-28T15:54:52.919Z,7.90
2018-01-28T15:57:21.786Z,7.80
2018-01-28T15:59:49.328Z,7.80
2018-01-28T16:02:16.758Z,7.80
2018-01-28T16:04:47.521Z,7.80
2018-01-28T16:07:14.990Z,7.80
2018-01-28T16:09:42.899Z,7.80
2018-01-28T16:12:10.349Z,7.80
2018-01-28T16:14:37.784Z,7.70
2018-01-28T16:17:06.975Z,7.80
2018-01-28T16:19:34.433Z,7.80
2018-01-28T16:22:01.933Z,7.80
2018-01-28T16:24:29.452Z,7.80
2018-01-28T16:26:58.419Z,7.80
2018-01-28T16:29:26.082Z,7.70
2018-01-28T16:31:53.574Z,7.80
2018-01-28T16:34:21.189Z,7.80
2018-01-28T16:36:52.502Z,7.80
2018-01-28T16:39:20.137Z,7.80
2018-01-28T16:41:47.635Z,7.80
2018-01-28T16:44:15.170Z,7.80
2018-01-28T16:46:42.784Z,7.80
2018-01-28T16:49:10.299Z,7.80
2018-01-28T16:51:37.815Z,7.80
2018-01-28T16:54:05.337Z,7.80
2018-01-28T16:56:33.768Z,7.80
2018-01-28T16:59:02.048Z,7.80
2018-01-28T17:01:29.558Z,7.80
2018-01-28T17:03:57.059Z,7.80
2018-01-28T17:06:28.376Z,7.70
2018-01-28T17:08:55.845Z,7.70
2018-01-28T17:11:23.378Z,7.80
2018-01-28T17:13:50.895Z,7.80
2018-01-28T17:16:18.488Z,7.80
2018-01-28T17:18:45.984Z,7.80
2018-01-28T17:21:17.237Z,7.80
2018-01-28T17:23:45.631Z,7.90
2018-01-28T17:26:13.911Z,7.90
2018-01-28T17:28:41.382Z,7.90
2018-01-28T17:31:09.143Z,7.90
2018-01-28T17:33:38.333Z,7.90
2018-01-28T17:36:08.924Z,7.90
2018-01-28T17:38:36.514Z,7.90
2018-01-28T17:41:03.995Z,7.90
2018-01-28T17:43:31.493Z,7.90
2018-01-28T17:45:59.016Z,7.90
2018-01-28T17:48:27.451Z,7.80
2018-01-28T17:50:54.933Z,7.80
2018-01-28T17:53:22.648Z,7.80
2018-01-28T17:55:50.076Z,7.70
2018-01-28T17:58:17.666Z,7.80
2018-01-28T18:00:45.196Z,7.80
2018-01-28T18:03:12.712Z,7.80
2018-01-28T18:05:40.823Z,7.80
2018-01-28T18:08:08.403Z,7.80
2018-01-28T18:10:35.906Z,7.90
2018-01-28T18:13:04.121Z,8.00
2018-01-28T18:15:31.666Z,8.00
2018-01-28T18:17:59.196Z,8.00
2018-01-28T18:20:27.513Z,8.00
2018-01-28T18:22:54.960Z,8.00
2018-01-28T18:25:22.482Z,8.10
2018-01-28T18:27:50.289Z,8.10
2018-01-28T18:30:17.756Z,8.10
2018-01-28T18:32:45.384Z,8.00
2018-01-28T18:35:12.812Z,8.00
2018-01-28T18:37:40.634Z,8.00
2018-01-28T18:40:09.552Z,8.00
2018-01-28T18:42:37.153Z,8.00
2018-01-28T18:45:05.400Z,8.00
2018-01-28T18:47:33.429Z,8.00
2018-01-28T18:50:00.939Z,8.00
2018-01-28T18:52:35.817Z,8.00
2018-01-28T18:55:03.826Z,8.00
2018-01-28T18:57:31.361Z,7.90
2018-01-28T18:59:58.813Z,8.00
2018-01-28T19:02:26.372Z,8.10
2018-01-28T19:04:54.201Z,8.00
2018-01-28T19:07:21.692Z,8.00
2018-01-28T19:09:49.304Z,8.00
2018-01-28T19:12:18.541Z,8.00
2018-01-28T19:14:46.378Z,8.00
2018-01-28T19:17:14.635Z,8.00
2018-01-28T19:19:42.751Z,8.00
2018-01-28T19:22:10.296Z,8.00
2018-01-28T19:24:37.788Z,8.10
2018-01-28T19:27:05.295Z,8.00
2018-01-28T19:29:34.296Z,8.10
2018-01-28T19:32:02.156Z,8.00
2018-01-28T19:34:29.679Z,8.00
2018-01-28T19:36:57.289Z,8.00
2018-01-28T19:39:24.833Z,8.00
2018-01-28T19:41:53.396Z,8.00
2018-01-28T19:44:20.922Z,8.00
2018-01-28T19:46:48.422Z,8.00
2018-01-28T19:49:16.054Z,7.90
2018-01-28T19:51:44.314Z,7.90
2018-01-28T19:54:12.107Z,7.80
2018-01-28T19:56:39.886Z,7.80
2018-01-28T19:59:07.653Z,7.80
2018-01-28T20:01:35.143Z,7.80
2018-01-28T20:04:02.731Z,7.90
2018-01-28T20:06:30.228Z,7.80
2018-01-28T20:08:57.665Z,7.80
2018-01-28T20:11:25.163Z,7.80
2018-01-28T20:13:52.676Z,7.80
2018-01-28T20:16:20.212Z,7.80
2018-01-28T20:18:48.459Z,7.70
2018-01-28T20:21:15.972Z,7.80
2018-01-28T20:23:43.508Z,7.90
2018-01-28T20:26:11.027Z,7.80
2018-01-28T20:28:38.584Z,7.80
2018-01-28T20:31:06.030Z,7.80
2018-01-28T20:33:33.578Z,7.90
2018-01-28T20:36:02.087Z,8.00
2018-01-28T20:38:29.628Z,8.00
2018-01-28T20:41:01.407Z,8.00
2018-01-28T20:43:28.910Z,8.00
2018-01-28T20:45:56.928Z,8.00
2018-01-28T20:48:24.475Z,7.90
2018-01-28T20:50:52.298Z,8.00
2018-01-28T20:53:19.779Z,8.00
2018-01-28T20:55:51.621Z,8.00
2018-01-28T20:58:19.595Z,7.90
2018-01-28T21:00:47.298Z,7.90
2018-01-28T21:03:14.795Z,7.90
2018-01-28T21:05:42.280Z,7.80
2018-01-28T21:08:09.742Z,7.90
2018-01-28T21:10:37.278Z,7.90
2018-01-28T21:13:04.796Z,7.90
2018-01-28T21:15:32.354Z,7.80
2018-01-28T21:18:00.768Z,7.90
2018-01-28T21:20:28.350Z,7.90
2018-01-28T21:22:56.289Z,8.00
2018-01-28T21:25:23.805Z,7.90
2018-01-28T21:27:51.457Z,8.00
2018-01-28T21:30:20.351Z,8.00
2018-01-28T21:32:47.896Z,8.00
2018-01-28T21:35:15.509Z,8.00
2018-01-28T21:37:43.644Z,8.00
2018-01-28T21:40:15.173Z,8.00
2018-01-28T21:42:42.660Z,8.00
2018-01-28T21:45:10.134Z,8.00
2018-01-28T21:47:38.434Z,8.00
2018-01-28T21:50:05.893Z,8.00
2018-01-28T21:52:34.828Z,8.10
2018-01-28T21:55:02.327Z,8.10
2018-01-28T21:57:29.823Z,8.10
2018-01-28T21:59:57.299Z,8.10
2018-01-28T22:02:24.999Z,8.10
2018-01-28T22:04:53.108Z,8.10
2018-01-28T22:07:20.663Z,8.10
2018-01-28T22:09:48.206Z,8.10
2018-01-28T22:12:15.960Z,8.20
2018-01-28T22:14:43.496Z,8.10
2018-01-28T22:17:10.988Z,8.10
2018-01-28T22:19:38.499Z,8.10
2018-01-28T22:22:06.766Z,8.10
2018-01-28T22:24:34.264Z,8.10
2018-01-28T22:27:06.028Z,8.20
2018-01-28T22:29:33.506Z,8.10
2018-01-28T22:32:01.589Z,8.20
2018-01-28T22:34:29.023Z,8.10
2018-01-28T22:36:56.494Z,8.20
2018-01-28T22:39:24.024Z,8.20
2018-01-28T22:41:51.472Z,8.20
2018-01-28T22:44:19.776Z,8.10
2018-01-28T22:46:47.513Z,8.10
2018-01-28T22:49:15.474Z,8.10
2018-01-28T22:51:42.972Z,8.00
2018-01-28T22:54:10.404Z,8.10
2018-01-28T22:56:42.359Z,8.10
2018-01-28T22:59:10.579Z,8.10
2018-01-28T23:01:38.051Z,8.10
2018-01-28T23:04:05.644Z,8.10
2018-01-28T23:06:33.902Z,8.10
2018-01-28T23:09:01.408Z,8.00
2018-01-28T23:11:32.791Z,8.00
2018-01-28T23:14:00.235Z,8.00
2018-01-28T23:16:27.756Z,8.00
2018-01-28T23:18:55.181Z,8.00
2018-01-28T23:21:22.659Z,8.10
2018-01-28T23:23:50.120Z,8.00
2018-01-28T23:26:17.579Z,8.00
2018-01-28T23:28:45.825Z,8.00
2018-01-28T23:31:13.395Z,8.00
2018-01-28T23:33:40.898Z,7.90
2018-01-28T23:36:08.321Z,8.00
2018-01-28T23:38:35.764Z,8.00
2018-01-28T23:41:03.280Z,8.00
2018-01-28T23:43:30.712Z,7.90
2018-01-28T23:45:58.180Z,7.90
2018-01-28T23:48:25.805Z,7.90
2018-01-28T23:50:53.299Z,7.90
2018-01-28T23:53:22.528Z,8.10
2018-01-28T23:55:49.984Z,8.00
2018-01-28T23:58:20.935Z,8.00
